Time;durP1;ratioP1;P1;durP2;ratioP2;P2;SDS_P1;SDS_P2;PMS_P1;PMS_P2;Temp;Humidity;BMP_temperature;BMP_pressure;BME280_temperature;BME280_humidity;BME280_pressure;Samples;Min_cycle;Max_cycle;Signal;HPM_P1;HPM_P2
2021/12/21 00:01:07;;;;;;;11.63;7.83;;;0.30;99.90;;;;;;5029108;28;20228;-80
2021/12/21 00:03:36;;;;;;;14.03;8.60;;;0.30;99.90;;;;;;5028554;28;20231;-80
2021/12/21 00:06:03;;;;;;;14.83;7.83;;;0.20;99.90;;;;;;5029669;28;20302;-79
2021/12/21 00:08:30;;;;;;;13.00;8.20;;;0.20;99.90;;;;;;5030086;28;20746;-79
2021/12/21 00:10:58;;;;;;;23.17;8.73;;;0.20;99.90;;;;;;5047759;28;20295;-80
2021/12/21 00:13:39;;;;;;;14.40;7.60;;;0.20;99.90;;;;;;5027143;28;20232;-79
2021/12/21 00:16:14;;;;;;;12.00;8.07;;;0.20;99.90;;;;;;5024123;28;20223;-79
2021/12/21 00:19:00;;;;;;;14.73;7.60;;;0.20;99.90;;;;;;5030921;28;20241;-79
2021/12/21 00:21:36;;;;;;;15.07;7.47;;;0.20;99.90;;;;;;5033744;28;20235;-79
2021/12/21 00:24:11;;;;;;;13.40;7.83;;;0.20;99.90;;;;;;5040260;28;20762;-79
2021/12/21 00:26:38;;;;;;;12.37;7.93;;;0.20;99.90;;;;;;5046368;28;20235;-79
2021/12/21 00:29:05;;;;;;;14.30;7.70;;;0.30;99.90;;;;;;5030357;28;20224;-79
2021/12/21 00:31:34;;;;;;;12.30;7.50;;;0.20;99.90;;;;;;5043818;28;20755;-79
2021/12/21 00:34:04;;;;;;;12.03;7.70;;;0.30;99.90;;;;;;5047083;28;20216;-79
2021/12/21 00:36:31;;;;;;;12.03;7.40;;;0.20;99.90;;;;;;5026622;28;20230;-79
2021/12/21 00:39:03;;;;;;;11.50;7.30;;;0.20;99.90;;;;;;5030337;28;20217;-79
2021/12/21 00:41:31;;;;;;;11.53;7.57;;;0.20;99.90;;;;;;5032710;28;20228;-79
2021/12/21 00:43:58;;;;;;;11.97;7.87;;;0.20;99.90;;;;;;5025843;28;20714;-80
2021/12/21 00:46:25;;;;;;;14.70;8.60;;;0.10;99.90;;;;;;5029469;28;20389;-80
2021/12/21 00:48:54;;;;;;;11.27;7.47;;;0.10;99.90;;;;;;5029918;28;20247;-80
2021/12/21 00:51:27;;;;;;;17.27;9.10;;;0.00;99.90;;;;;;5028922;28;20242;-80
2021/12/21 00:53:54;;;;;;;16.20;9.17;;;-0.10;99.90;;;;;;5028439;28;20223;-80
2021/12/21 00:56:21;;;;;;;15.63;9.30;;;-0.10;99.90;;;;;;5028536;28;20253;-80
2021/12/21 00:58:47;;;;;;;16.93;8.50;;;-0.10;99.90;;;;;;5029017;28;20226;-80
2021/12/21 01:01:14;;;;;;;15.37;8.27;;;-0.20;99.90;;;;;;5044423;28;20229;-80
2021/12/21 01:03:47;;;;;;;13.87;8.13;;;-0.20;99.90;;;;;;5043309;28;20237;-80
2021/12/21 01:06:20;;;;;;;15.93;8.13;;;-0.20;99.90;;;;;;5027746;28;20234;-81
2021/12/21 01:09:03;;;;;;;14.30;9.40;;;-0.30;99.90;;;;;;5032665;28;20212;-81
2021/12/21 01:11:33;;;;;;;16.97;9.53;;;-0.30;99.90;;;;;;5031499;28;20848;-79
2021/12/21 01:14:12;;;;;;;16.50;10.17;;;-0.30;99.90;;;;;;5044752;28;20247;-80
2021/12/21 01:16:40;;;;;;;11.77;8.03;;;-0.20;99.90;;;;;;5045913;28;20246;-80
2021/12/21 01:19:13;;;;;;;14.87;8.43;;;-0.30;99.90;;;;;;5031786;28;20653;-80
2021/12/21 01:21:47;;;;;;;14.50;8.40;;;-0.30;99.90;;;;;;5050508;28;20630;-81
2021/12/21 01:27:08;;;;;;;13.00;8.20;;;-0.30;99.90;;;;;;5029252;28;20407;-79
2021/12/21 01:29:43;;;;;;;14.57;7.73;;;-0.40;99.90;;;;;;5046004;28;20316;-80
2021/12/21 01:32:17;;;;;;;11.93;7.80;;;-0.30;99.90;;;;;;5032917;28;20694;-80
2021/12/21 01:34:54;;;;;;;12.40;7.37;;;-0.40;99.90;;;;;;5034708;28;20253;-80
2021/12/21 01:37:26;;;;;;;12.77;7.80;;;-0.40;99.90;;;;;;5030274;28;20217;-80
2021/12/21 01:40:09;;;;;;;13.63;8.93;;;-0.40;99.90;;;;;;5034337;28;20219;-79
2021/12/21 01:42:53;;;;;;;11.50;7.97;;;-0.50;99.90;;;;;;5037949;28;20942;-80
2021/12/21 01:50:50;;;;;;;15.10;8.47;;;-0.50;99.90;;;;;;5031772;28;20337;-78
2021/12/21 01:53:17;;;;;;;15.13;8.00;;;-0.50;99.90;;;;;;5034276;28;20234;-78
2021/12/21 01:55:45;;;;;;;13.67;8.40;;;-0.50;99.90;;;;;;5028365;28;20242;-78
2021/12/21 01:58:12;;;;;;;12.87;7.57;;;-0.50;99.90;;;;;;5032399;28;20220;-78
2021/12/21 02:00:40;;;;;;;14.77;8.67;;;-0.50;99.90;;;;;;5032414;28;20238;-79
2021/12/21 02:03:07;;;;;;;12.53;7.73;;;-0.50;99.90;;;;;;5031465;28;20227;-78
2021/12/21 02:05:34;;;;;;;12.00;7.83;;;-0.60;99.90;;;;;;5031995;28;20307;-83
2021/12/21 02:08:01;;;;;;;10.67;7.10;;;-0.50;99.90;;;;;;5054310;28;20233;-80
2021/12/21 02:10:28;;;;;;;11.20;7.20;;;-0.60;99.90;;;;;;5047711;28;20298;-81
2021/12/21 02:12:56;;;;;;;11.70;7.57;;;-0.50;99.90;;;;;;5028145;28;20230;-81
2021/12/21 02:15:24;;;;;;;12.40;7.37;;;-0.60;99.90;;;;;;5032070;28;20304;-80
2021/12/21 02:18:26;;;;;;;17.43;8.30;;;-0.60;99.90;;;;;;5030994;28;20216;-81
2021/12/21 02:20:57;;;;;;;11.23;6.63;;;-0.60;99.90;;;;;;5032349;28;20216;-81
2021/12/21 02:23:29;;;;;;;17.67;8.67;;;-0.60;99.90;;;;;;5038036;28;20227;-81
2021/12/21 02:31:27;;;;;;;15.93;8.40;;;-0.60;99.90;;;;;;5043544;28;20238;-81
2021/12/21 02:33:54;;;;;;;14.93;7.83;;;-0.60;99.90;;;;;;5044738;28;20303;-81
2021/12/21 02:36:22;;;;;;;11.97;7.73;;;-0.60;99.90;;;;;;5030700;28;20302;-80
2021/12/21 02:38:49;;;;;;;15.57;7.93;;;-0.60;99.90;;;;;;5053718;28;20230;-80
2021/12/21 02:41:16;;;;;;;14.87;7.97;;;-0.60;99.90;;;;;;5035179;28;20309;-80
2021/12/21 02:43:43;;;;;;;13.13;8.03;;;-0.60;99.90;;;;;;5051977;28;20223;-80
2021/12/21 02:46:10;;;;;;;13.77;7.13;;;-0.60;99.90;;;;;;5040162;28;20315;-80
2021/12/21 02:48:36;;;;;;;14.07;7.30;;;-0.60;99.90;;;;;;5045399;28;20314;-80
2021/12/21 02:51:03;;;;;;;14.10;8.20;;;-0.60;99.90;;;;;;5024020;28;20223;-79
2021/12/21 02:53:31;;;;;;;15.27;8.00;;;-0.60;99.90;;;;;;5048297;28;20220;-80
2021/12/21 02:55:58;;;;;;;15.00;7.57;;;-0.60;99.90;;;;;;5047696;28;20697;-80
2021/12/21 02:58:25;;;;;;;13.90;7.77;;;-0.60;99.90;;;;;;5035955;28;20217;-79
2021/12/21 03:00:53;;;;;;;19.37;9.00;;;-0.60;99.90;;;;;;5030938;28;20222;-79
2021/12/21 03:03:20;;;;;;;11.50;8.27;;;-0.60;99.90;;;;;;5041582;28;20232;-79
2021/12/21 03:05:51;;;;;;;16.57;9.17;;;-0.60;99.90;;;;;;5049294;28;20216;-79
2021/12/21 03:08:21;;;;;;;14.50;8.37;;;-0.60;99.90;;;;;;5044698;28;20314;-79
2021/12/21 03:11:03;;;;;;;16.40;8.20;;;-0.60;99.90;;;;;;5027979;28;20225;-79
2021/12/21 03:16:16;;;;;;;15.53;8.40;;;-0.70;99.90;;;;;;5045440;28;20359;-79
2021/12/21 03:18:43;;;;;;;14.10;8.27;;;-0.70;99.90;;;;;;5045356;28;20234;-80
2021/12/21 03:21:10;;;;;;;15.67;8.43;;;-0.70;99.90;;;;;;5029049;28;20252;-80
2021/12/21 03:23:37;;;;;;;14.53;8.57;;;-0.70;99.90;;;;;;5033632;28;20255;-80
2021/12/21 03:26:06;;;;;;;12.30;8.17;;;-0.70;99.90;;;;;;5029927;28;20318;-80
2021/12/21 03:28:32;;;;;;;15.20;8.87;;;-0.70;99.90;;;;;;5032599;28;20232;-81
2021/12/21 03:30:59;;;;;;;12.10;7.80;;;-0.70;99.90;;;;;;5027079;28;20228;-80
2021/12/21 03:33:26;;;;;;;12.63;8.13;;;-0.80;99.90;;;;;;5043232;28;20222;-79
2021/12/21 03:35:53;;;;;;;15.80;8.20;;;-0.80;99.90;;;;;;5029054;28;20221;-79
2021/12/21 03:38:20;;;;;;;14.13;7.93;;;-0.80;99.90;;;;;;5047458;28;20252;-80
2021/12/21 03:40:46;;;;;;;12.53;8.03;;;-0.90;99.90;;;;;;5031022;28;20232;-79
2021/12/21 03:43:14;;;;;;;13.73;7.83;;;-0.90;99.90;;;;;;5025848;28;20222;-80
2021/12/21 03:45:50;;;;;;;10.50;7.23;;;-1.00;99.90;;;;;;5044334;28;20220;-80
2021/12/21 03:48:17;;;;;;;10.47;7.07;;;-1.00;99.90;;;;;;5029721;28;20222;-80
2021/12/21 03:50:44;;;;;;;9.93;7.17;;;-1.10;99.90;;;;;;5027238;28;20218;-80
2021/12/21 03:53:11;;;;;;;12.77;7.97;;;-1.10;99.90;;;;;;5029198;28;20357;-80
2021/12/21 03:55:37;;;;;;;13.10;7.73;;;-1.10;99.90;;;;;;5044934;28;20697;-80
2021/12/21 03:58:04;;;;;;;12.53;7.60;;;-1.20;99.90;;;;;;5047871;28;20328;-80
2021/12/21 04:00:32;;;;;;;14.43;7.47;;;-1.20;99.90;;;;;;5047513;28;20234;-80
2021/12/21 04:02:59;;;;;;;13.00;7.77;;;-1.30;99.90;;;;;;5046521;28;20338;-80
2021/12/21 04:05:26;;;;;;;15.53;8.90;;;-1.30;99.90;;;;;;5041395;28;20221;-80
2021/12/21 04:07:52;;;;;;;16.43;8.63;;;-1.30;99.90;;;;;;5051315;28;20253;-81
2021/12/21 04:10:19;;;;;;;14.27;8.37;;;-1.30;99.90;;;;;;5032664;28;20228;-81
2021/12/21 04:12:46;;;;;;;13.97;7.97;;;-1.30;99.90;;;;;;5031580;28;20230;-81
2021/12/21 04:15:14;;;;;;;14.23;8.70;;;-1.30;99.90;;;;;;5030120;28;20301;-80
2021/12/21 04:17:42;;;;;;;14.30;8.13;;;-1.30;99.90;;;;;;5028450;28;20214;-80
2021/12/21 04:20:10;;;;;;;14.90;7.87;;;-1.30;99.90;;;;;;5043764;28;20252;-80
2021/12/21 04:22:37;;;;;;;12.60;9.00;;;-1.20;99.90;;;;;;5028750;28;20320;-79
2021/12/21 04:25:04;;;;;;;13.90;8.27;;;-1.20;99.90;;;;;;5046038;28;20222;-79
2021/12/21 04:27:31;;;;;;;15.17;8.50;;;-1.20;99.90;;;;;;5042907;28;20221;-78
2021/12/21 04:29:58;;;;;;;15.00;8.57;;;-1.10;99.90;;;;;;5045009;28;20213;-78
2021/12/21 04:32:24;;;;;;;14.27;8.87;;;-1.10;99.90;;;;;;5047394;28;20326;-79
2021/12/21 04:34:52;;;;;;;13.57;7.87;;;-1.00;99.90;;;;;;5046536;28;20251;-80
2021/12/21 04:37:22;;;;;;;12.20;8.33;;;-0.90;99.90;;;;;;5045021;28;20316;-80
2021/12/21 04:39:55;;;;;;;15.07;8.57;;;-0.90;99.90;;;;;;5028532;28;20293;-80
2021/12/21 04:42:22;;;;;;;13.37;8.30;;;-0.90;99.90;;;;;;5022906;28;20226;-80
2021/12/21 04:44:48;;;;;;;12.90;8.00;;;-0.90;99.90;;;;;;5045448;28;20217;-80
2021/12/21 04:47:15;;;;;;;13.77;7.83;;;-0.90;99.90;;;;;;5030223;28;20219;-80
2021/12/21 04:49:42;;;;;;;13.00;7.30;;;-0.90;99.90;;;;;;5028303;28;20232;-80
2021/12/21 04:52:11;;;;;;;12.53;7.43;;;-0.90;99.90;;;;;;5047106;28;20229;-79
2021/12/21 04:54:39;;;;;;;12.93;7.87;;;-0.90;99.90;;;;;;5027644;28;21017;-79
2021/12/21 04:57:06;;;;;;;15.60;7.83;;;-1.00;99.90;;;;;;5028585;28;20319;-79
2021/12/21 04:59:33;;;;;;;13.17;7.43;;;-1.00;99.90;;;;;;5042929;28;20241;-79
2021/12/21 05:01:59;;;;;;;16.00;7.00;;;-1.10;99.90;;;;;;5041442;28;20774;-79
2021/12/21 05:04:26;;;;;;;17.17;8.30;;;-1.10;99.90;;;;;;5044272;28;20226;-80
2021/12/21 05:06:53;;;;;;;13.57;8.40;;;-1.20;99.90;;;;;;5041835;28;20233;-80
2021/12/21 05:09:25;;;;;;;11.97;7.57;;;-1.20;99.90;;;;;;5034517;28;20315;-80
2021/12/21 05:11:59;;;;;;;15.70;8.17;;;-1.30;99.90;;;;;;5030137;28;20228;-84
2021/12/21 05:14:26;;;;;;;14.43;8.63;;;-1.30;99.90;;;;;;5043074;28;20239;-85
2021/12/21 05:16:53;;;;;;;14.70;7.70;;;-1.40;99.90;;;;;;5038323;28;20226;-89
2021/12/21 05:19:20;;;;;;;11.97;7.33;;;-1.40;99.90;;;;;;5038615;28;20233;-86
2021/12/21 05:21:46;;;;;;;14.13;8.30;;;-1.40;99.90;;;;;;5040057;28;20290;-82
2021/12/21 05:24:13;;;;;;;14.93;8.60;;;-1.50;99.90;;;;;;5048049;28;20217;-84
2021/12/21 05:26:41;;;;;;;15.53;8.30;;;-1.50;99.90;;;;;;5036042;28;20243;-86
2021/12/21 05:29:08;;;;;;;13.27;8.27;;;-1.50;99.90;;;;;;5029639;28;20253;-84
2021/12/21 05:31:35;;;;;;;16.03;8.33;;;-1.60;99.90;;;;;;5056734;28;20749;-86
2021/12/21 05:34:02;;;;;;;68.03;11.87;;;-1.60;99.90;;;;;;5032210;28;20233;-86
2021/12/21 05:36:28;;;;;;;13.83;8.83;;;-1.60;99.90;;;;;;5027441;28;20235;-86
2021/12/21 05:39:00;;;;;;;11.40;8.17;;;-1.60;99.90;;;;;;5048358;28;20220;-86
2021/12/21 05:41:39;;;;;;;15.47;8.90;;;-1.60;99.90;;;;;;5036143;28;20216;-86
2021/12/21 05:44:07;;;;;;;13.63;8.30;;;-1.60;99.90;;;;;;5031501;28;20393;-86
2021/12/21 05:46:34;;;;;;;16.40;9.07;;;-1.50;99.90;;;;;;5045885;28;20236;-86
2021/12/21 05:49:01;;;;;;;16.03;8.80;;;-1.50;99.90;;;;;;5030812;28;20229;-86
2021/12/21 05:51:27;;;;;;;14.50;8.63;;;-1.50;99.90;;;;;;5030710;28;20322;-86
2021/12/21 05:53:54;;;;;;;14.43;8.37;;;-1.50;99.90;;;;;;5049630;28;20281;-86
2021/12/21 05:56:21;;;;;;;15.40;8.50;;;-1.40;99.90;;;;;;5052124;28;20232;-86
2021/12/21 05:58:47;;;;;;;15.17;8.57;;;-1.40;99.90;;;;;;5050863;28;20214;-86
2021/12/21 06:01:16;;;;;;;15.30;7.83;;;-1.40;99.90;;;;;;5035870;28;20225;-87
2021/12/21 06:03:43;;;;;;;13.97;8.00;;;-1.40;99.90;;;;;;5051652;28;20214;-85
2021/12/21 06:06:13;;;;;;;12.83;7.93;;;-1.40;99.90;;;;;;5033393;28;20225;-86
2021/12/21 06:08:41;;;;;;;13.90;7.80;;;-1.40;99.90;;;;;;5050093;28;20226;-84
2021/12/21 06:11:08;;;;;;;12.83;7.67;;;-1.50;99.90;;;;;;5035572;28;20880;-85
2021/12/21 06:25:22;;;;;;;11.30;7.70;;;-1.60;99.90;;;;;;5014991;28;20255;-86
2021/12/21 06:27:50;;;;;;;12.13;7.13;;;-1.60;99.90;;;;;;5033821;28;20267;-86
2021/12/21 06:30:17;;;;;;;12.57;7.10;;;-1.60;99.90;;;;;;5051594;28;20226;-87
2021/12/21 06:32:51;;;;;;;12.57;6.63;;;-1.60;99.90;;;;;;5052411;28;20308;-87
2021/12/21 06:35:18;;;;;;;13.70;8.00;;;-1.70;99.90;;;;;;5049468;28;20221;-86
2021/12/21 06:37:50;;;;;;;11.20;7.10;;;-1.70;99.90;;;;;;5034181;28;20261;-86
2021/12/21 06:40:18;;;;;;;17.77;8.10;;;-1.70;99.90;;;;;;5034693;28;20219;-86
2021/12/21 06:42:48;;;;;;;14.57;8.33;;;-1.80;99.90;;;;;;5034473;28;20235;-87
2021/12/21 06:45:26;;;;;;;11.63;7.83;;;-1.80;99.90;;;;;;5051941;28;20313;-86
2021/12/21 06:53:25;;;;;;;13.73;7.50;;;-1.80;99.90;;;;;;5054823;28;20214;-86
2021/12/21 06:55:51;;;;;;;15.70;7.93;;;-1.80;99.90;;;;;;5030747;28;20225;-86
2021/12/21 06:58:18;;;;;;;13.03;7.63;;;-1.80;99.90;;;;;;5034108;28;20312;-86
2021/12/21 07:00:47;;;;;;;14.03;8.37;;;-1.80;99.90;;;;;;5032336;28;20223;-86
2021/12/21 07:03:15;;;;;;;13.30;8.63;;;-1.90;99.90;;;;;;5037295;28;20695;-86
2021/12/21 07:05:42;;;;;;;14.07;7.33;;;-1.90;99.90;;;;;;5035871;28;20222;-86
2021/12/21 07:08:14;;;;;;;12.37;7.87;;;-1.80;99.90;;;;;;5059184;28;20225;-87
2021/12/21 07:10:44;;;;;;;13.40;8.43;;;-1.90;99.90;;;;;;5049414;28;20224;-86
2021/12/21 07:18:41;;;;;;;13.77;8.30;;;-1.90;99.90;;;;;;5053023;28;20577;-86
2021/12/21 07:21:08;;;;;;;13.37;8.50;;;-2.00;99.90;;;;;;5035842;28;20223;-86
2021/12/21 07:23:34;;;;;;;12.53;7.90;;;-1.90;99.90;;;;;;5049882;28;20214;-86
2021/12/21 07:26:01;;;;;;;12.03;7.90;;;-2.00;99.90;;;;;;5033404;28;20228;-86
2021/12/21 07:28:28;;;;;;;14.80;7.83;;;-1.90;99.90;;;;;;5047879;28;20229;-86
2021/12/21 07:30:56;;;;;;;12.67;7.90;;;-1.90;99.90;;;;;;5035031;28;20228;-86
2021/12/21 07:33:22;;;;;;;13.83;8.17;;;-1.90;99.90;;;;;;5038879;28;20221;-85
2021/12/21 07:35:51;;;;;;;13.17;8.80;;;-1.90;99.90;;;;;;5033637;28;20316;-85
2021/12/21 07:38:19;;;;;;;14.57;8.40;;;-1.90;99.90;;;;;;5026467;28;20326;-82
2021/12/21 07:40:46;;;;;;;16.40;9.03;;;-1.90;99.90;;;;;;5037226;28;20698;-81
2021/12/21 07:43:13;;;;;;;12.70;8.13;;;-1.90;99.90;;;;;;5029264;28;20240;-82
2021/12/21 07:45:40;;;;;;;12.00;8.07;;;-1.90;99.90;;;;;;5046415;28;20224;-82
2021/12/21 07:48:07;;;;;;;15.70;9.17;;;-1.90;99.90;;;;;;5046818;28;20234;-82
2021/12/21 07:50:35;;;;;;;12.27;8.13;;;-1.90;99.90;;;;;;5047976;28;20563;-82
2021/12/21 07:53:03;;;;;;;13.17;8.30;;;-1.90;99.90;;;;;;5047547;28;20215;-81
2021/12/21 07:55:30;;;;;;;14.27;8.63;;;-1.90;99.90;;;;;;5043265;28;20713;-82
2021/12/21 07:57:57;;;;;;;19.00;9.17;;;-1.90;99.90;;;;;;5021323;28;20227;-82
2021/12/21 08:00:24;;;;;;;12.90;8.20;;;-1.80;99.90;;;;;;5036004;28;20222;-82
2021/12/21 08:02:53;;;;;;;14.43;8.57;;;-1.80;99.90;;;;;;5036324;28;20227;-82
2021/12/21 08:05:21;;;;;;;16.57;8.63;;;-1.80;99.90;;;;;;5028883;28;20234;-82
2021/12/21 08:07:53;;;;;;;15.80;9.63;;;-1.80;99.90;;;;;;5037144;28;20228;-82
2021/12/21 08:10:27;;;;;;;16.07;8.67;;;-1.70;99.90;;;;;;5052122;28;20225;-81
2021/12/21 08:12:55;;;;;;;15.40;8.57;;;-1.70;99.90;;;;;;5028118;28;20308;-82
2021/12/21 08:15:23;;;;;;;13.97;8.00;;;-1.60;99.90;;;;;;5031100;28;20226;-81
2021/12/21 08:17:49;;;;;;;15.07;8.60;;;-1.50;99.90;;;;;;5028095;28;20330;-81
2021/12/21 08:20:16;;;;;;;14.77;8.83;;;-1.40;99.90;;;;;;5034284;28;20217;-81
2021/12/21 08:22:43;;;;;;;13.80;9.70;;;-1.30;99.90;;;;;;5031125;28;20766;-82
2021/12/21 08:25:12;;;;;;;13.67;8.83;;;-1.10;99.90;;;;;;5034924;28;20758;-81
2021/12/21 08:27:40;;;;;;;16.20;8.57;;;-0.80;99.90;;;;;;5029399;28;20223;-82
2021/12/21 08:30:08;;;;;;;12.80;8.43;;;-0.50;99.90;;;;;;5043570;28;20228;-82
2021/12/21 08:32:34;;;;;;;12.13;7.80;;;-0.10;99.90;;;;;;5048438;28;20223;-82
2021/12/21 08:35:01;;;;;;;11.10;7.13;;;0.40;99.90;;;;;;5044425;28;20307;-82
2021/12/21 08:37:28;;;;;;;10.63;6.73;;;0.80;99.90;;;;;;5046890;28;20221;-82
2021/12/21 08:39:56;;;;;;;10.50;7.60;;;1.20;99.90;;;;;;5031799;28;20229;-82
2021/12/21 08:42:24;;;;;;;14.00;7.17;;;1.50;99.90;;;;;;5045921;28;20250;-82
2021/12/21 08:44:52;;;;;;;11.77;7.07;;;1.80;99.90;;;;;;5027420;28;20717;-82
2021/12/21 08:47:19;;;;;;;11.87;6.77;;;1.80;99.90;;;;;;5033408;28;20235;-82
2021/12/21 08:49:47;;;;;;;12.70;7.37;;;1.80;99.90;;;;;;5046435;28;20226;-82
2021/12/21 08:52:13;;;;;;;14.57;8.50;;;1.70;99.90;;;;;;5031372;28;20216;-82
2021/12/21 08:54:40;;;;;;;13.87;7.90;;;1.60;99.90;;;;;;5025729;28;20258;-82
2021/12/21 08:57:07;;;;;;;11.53;8.93;;;1.50;99.90;;;;;;5029381;28;20222;-82
2021/12/21 08:59:34;;;;;;;14.03;9.20;;;1.50;99.90;;;;;;5029287;28;20439;-82
2021/12/21 09:02:02;;;;;;;13.73;8.17;;;1.60;99.90;;;;;;5046741;28;20237;-82
2021/12/21 09:04:29;;;;;;;12.30;8.87;;;1.80;99.90;;;;;;5034439;28;20309;-81
2021/12/21 09:06:55;;;;;;;14.70;9.17;;;2.20;99.90;;;;;;5024423;28;20223;-82
2021/12/21 09:09:22;;;;;;;11.07;7.43;;;2.70;99.90;;;;;;5028564;28;20769;-82
2021/12/21 09:11:50;;;;;;;9.03;7.00;;;3.30;99.90;;;;;;5030422;28;20218;-82
2021/12/21 09:14:18;;;;;;;12.80;8.10;;;3.80;99.90;;;;;;5042684;28;20251;-82
2021/12/21 09:16:45;;;;;;;10.63;7.37;;;4.40;99.90;;;;;;5028052;28;20225;-83
2021/12/21 09:19:13;;;;;;;10.07;6.90;;;4.90;99.90;;;;;;5034974;28;20592;-82
2021/12/21 09:21:40;;;;;;;10.43;6.80;;;5.40;99.90;;;;;;5030838;28;20225;-83
2021/12/21 09:24:07;;;;;;;11.67;6.83;;;5.90;99.90;;;;;;5029167;28;20240;-83
2021/12/21 09:26:33;;;;;;;11.33;6.40;;;6.30;99.90;;;;;;5058738;28;20222;-83
2021/12/21 09:29:00;;;;;;;12.93;7.27;;;6.70;99.90;;;;;;5050856;28;20219;-82
2021/12/21 09:31:27;;;;;;;9.30;6.60;;;7.00;99.90;;;;;;5028634;28;20237;-82
2021/12/21 09:33:54;;;;;;;8.30;6.17;;;7.20;99.90;;;;;;5035106;28;20223;-82
2021/12/21 09:36:22;;;;;;;9.13;6.43;;;7.20;99.90;;;;;;5034195;28;20232;-82
2021/12/21 09:39:03;;;;;;;13.43;7.00;;;7.20;99.90;;;;;;5050209;28;20223;-82
2021/12/21 09:41:30;;;;;;;9.87;6.47;;;7.10;99.90;;;;;;5039102;28;20217;-82
2021/12/21 09:43:57;;;;;;;11.77;6.90;;;7.00;99.70;;;;;;5055906;28;20230;-82
2021/12/21 09:46:24;;;;;;;10.37;7.50;;;6.80;99.50;;;;;;5050545;28;20683;-82
2021/12/21 09:48:50;;;;;;;10.63;7.27;;;6.70;99.60;;;;;;5051899;28;20712;-82
2021/12/21 09:51:17;;;;;;;15.37;6.80;;;6.50;99.60;;;;;;5050884;28;20219;-83
2021/12/21 09:53:46;;;;;;;11.13;7.07;;;6.40;99.80;;;;;;5047867;28;20227;-82
2021/12/21 09:56:13;;;;;;;10.80;6.93;;;6.30;99.90;;;;;;5047606;28;20226;-82
2021/12/21 09:58:40;;;;;;;13.03;6.93;;;6.10;99.90;;;;;;5050969;28;20681;-82
2021/12/21 10:01:07;;;;;;;13.27;8.50;;;6.10;99.90;;;;;;5054449;28;20242;-82
2021/12/21 10:03:34;;;;;;;10.27;8.30;;;6.00;99.90;;;;;;5034977;28;20708;-82
2021/12/21 10:06:05;;;;;;;10.00;7.17;;;6.00;99.90;;;;;;5039075;28;20221;-82
2021/12/21 10:08:33;;;;;;;11.17;7.07;;;6.00;99.90;;;;;;5050804;28;20226;-82
2021/12/21 10:11:02;;;;;;;10.00;7.13;;;6.00;99.90;;;;;;5045999;28;20229;-81
2021/12/21 10:13:29;;;;;;;15.00;7.80;;;6.00;99.90;;;;;;5029634;28;20264;-82
2021/12/21 10:15:59;;;;;;;15.33;7.53;;;5.90;99.90;;;;;;5036408;28;20316;-81
2021/12/21 10:18:28;;;;;;;12.87;7.87;;;5.90;99.90;;;;;;5036555;28;20280;-80
2021/12/21 10:20:57;;;;;;;12.93;8.10;;;6.00;99.90;;;;;;5051899;28;20682;-82
2021/12/21 10:23:26;;;;;;;11.87;8.20;;;6.00;99.90;;;;;;5051465;28;20222;-82
2021/12/21 10:25:57;;;;;;;13.70;8.73;;;6.00;99.90;;;;;;5049480;28;20246;-82
2021/12/21 10:28:34;;;;;;;9.33;7.77;;;6.10;99.90;;;;;;5048468;28;20233;-82
2021/12/21 10:31:03;;;;;;;11.37;7.47;;;6.10;99.90;;;;;;5027791;28;20221;-81
2021/12/21 10:33:32;;;;;;;11.67;7.53;;;6.20;99.90;;;;;;5048805;28;20220;-82
2021/12/21 10:36:00;;;;;;;10.07;8.13;;;6.30;99.90;;;;;;5029612;28;20290;-82
2021/12/21 10:38:29;;;;;;;12.93;8.07;;;6.40;99.90;;;;;;5030566;28;20396;-81
2021/12/21 10:40:59;;;;;;;12.03;8.53;;;6.60;99.90;;;;;;5033086;28;20311;-81
2021/12/21 10:43:28;;;;;;;12.70;8.50;;;6.70;99.90;;;;;;5022378;28;20232;-81
2021/12/21 10:45:59;;;;;;;15.17;8.73;;;6.90;99.90;;;;;;5049533;28;20215;-81
2021/12/21 10:48:26;;;;;;;13.10;8.13;;;7.10;99.90;;;;;;5030175;28;20261;-81
2021/12/21 10:50:53;;;;;;;12.13;8.47;;;7.30;99.90;;;;;;5050390;28;20713;-81
2021/12/21 10:53:23;;;;;;;13.50;8.77;;;7.40;99.90;;;;;;5045260;28;20555;-81
2021/12/21 10:56:00;;;;;;;12.17;8.47;;;7.50;99.90;;;;;;5032377;28;20223;-81
2021/12/21 10:58:28;;;;;;;13.20;8.23;;;7.60;99.90;;;;;;5038131;28;20216;-81
2021/12/21 11:00:58;;;;;;;13.07;8.67;;;7.80;99.90;;;;;;5025238;28;20305;-81
2021/12/21 11:03:32;;;;;;;16.50;8.43;;;8.00;99.90;;;;;;5036817;28;20231;-81
2021/12/21 11:06:08;;;;;;;15.70;9.53;;;8.30;99.90;;;;;;5029843;28;20269;-81
2021/12/21 11:08:38;;;;;;;12.17;8.40;;;8.50;99.90;;;;;;5046083;28;20223;-82
2021/12/21 11:11:10;;;;;;;15.17;9.40;;;8.80;99.90;;;;;;5042890;28;20274;-81
2021/12/21 11:13:37;;;;;;;14.50;9.23;;;9.10;99.90;;;;;;5034078;28;20212;-82
2021/12/21 11:16:07;;;;;;;13.33;9.63;;;9.30;99.90;;;;;;5031131;28;20224;-81
2021/12/21 11:18:37;;;;;;;14.10;9.90;;;9.50;99.90;;;;;;5047354;28;20620;-81
2021/12/21 11:21:09;;;;;;;12.57;9.40;;;9.70;99.90;;;;;;5030502;28;20228;-81
2021/12/21 11:23:36;;;;;;;14.03;9.10;;;9.80;99.60;;;;;;5043673;28;20625;-81
2021/12/21 11:26:07;;;;;;;13.90;10.37;;;9.90;99.60;;;;;;5048883;28;20241;-81
2021/12/21 11:28:36;;;;;;;14.37;9.90;;;10.10;99.60;;;;;;5055926;28;20218;-81
2021/12/21 11:31:07;;;;;;;13.60;9.33;;;10.10;99.50;;;;;;5032461;28;20230;-81
2021/12/21 11:33:40;;;;;;;16.10;9.50;;;10.20;99.30;;;;;;5050826;28;20608;-81
2021/12/21 11:38:52;;;;;;;16.50;10.03;;;10.30;99.40;;;;;;5046293;28;20218;-81
2021/12/21 11:41:20;;;;;;;18.23;10.87;;;10.30;99.50;;;;;;5032676;28;20220;-81
2021/12/21 11:43:54;;;;;;;17.37;10.77;;;10.40;99.30;;;;;;5056612;28;20222;-81
2021/12/21 11:46:32;;;;;;;17.43;10.70;;;10.40;99.10;;;;;;5031816;28;20220;-81
2021/12/21 11:49:03;;;;;;;16.37;10.17;;;10.50;98.90;;;;;;5030617;28;20838;-81
2021/12/21 11:51:31;;;;;;;14.73;10.27;;;10.60;99.00;;;;;;5060418;28;20223;-81
2021/12/21 11:53:57;;;;;;;20.77;11.10;;;10.60;99.10;;;;;;5029894;28;20247;-81
2021/12/21 11:56:26;;;;;;;14.23;9.73;;;10.70;99.10;;;;;;5026030;28;20340;-81
2021/12/21 11:58:54;;;;;;;14.37;10.60;;;10.70;98.90;;;;;;5058990;28;20603;-81
2021/12/21 12:01:25;;;;;;;14.97;10.30;;;10.80;98.90;;;;;;5038966;28;20234;-81
2021/12/21 12:03:58;;;;;;;15.80;10.70;;;10.80;98.70;;;;;;5019459;28;20252;-81
2021/12/21 12:06:27;;;;;;;14.50;9.93;;;10.80;98.50;;;;;;5009446;28;20234;-81
2021/12/21 12:08:59;;;;;;;14.23;10.07;;;10.90;98.80;;;;;;5031200;28;20311;-81
2021/12/21 12:11:28;;;;;;;14.17;9.63;;;10.90;98.50;;;;;;5009773;28;20235;-81
2021/12/21 12:14:07;;;;;;;15.33;9.60;;;10.80;98.40;;;;;;5011810;28;20718;-81
2021/12/21 12:16:43;;;;;;;12.50;9.60;;;10.90;98.10;;;;;;5013146;28;20234;-81
2021/12/21 12:19:12;;;;;;;13.77;9.67;;;10.90;98.20;;;;;;5029974;28;20228;-81
2021/12/21 12:21:38;;;;;;;16.80;10.00;;;10.90;98.50;;;;;;5033268;28;20285;-81
2021/12/21 12:24:06;;;;;;;13.87;10.73;;;11.00;98.40;;;;;;5014119;28;20230;-81
2021/12/21 12:26:35;;;;;;;18.00;10.90;;;11.00;98.20;;;;;;5049697;28;20225;-81
2021/12/21 12:29:11;;;;;;;14.10;9.90;;;10.90;98.10;;;;;;5058685;28;20219;-81
2021/12/21 12:31:42;;;;;;;16.20;10.30;;;10.90;98.00;;;;;;5038144;28;20235;-81
2021/12/21 12:34:09;;;;;;;19.60;10.70;;;10.90;98.30;;;;;;5028343;28;20221;-81
2021/12/21 12:36:39;;;;;;;16.67;10.83;;;11.00;98.40;;;;;;5009415;28;20334;-80
2021/12/21 12:39:08;;;;;;;16.77;10.57;;;11.00;98.10;;;;;;5011783;28;20224;-81
2021/12/21 12:41:45;;;;;;;17.43;11.63;;;11.00;98.00;;;;;;5031642;28;20219;-81
2021/12/21 12:44:26;;;;;;;18.67;11.10;;;10.90;97.60;;;;;;5021393;28;20245;-81
2021/12/21 12:46:57;;;;;;;19.20;11.00;;;10.90;97.70;;;;;;5021802;28;20722;-80
2021/12/21 12:49:27;;;;;;;16.50;10.40;;;10.90;98.00;;;;;;5026233;28;20963;-81
2021/12/21 12:52:04;;;;;;;15.83;10.50;;;10.80;98.00;;;;;;5042564;28;20226;-81
2021/12/21 12:54:31;;;;;;;17.13;10.63;;;10.80;97.70;;;;;;5010670;28;20266;-81
2021/12/21 12:56:57;;;;;;;17.73;10.90;;;10.70;98.10;;;;;;5025683;28;20686;-80
2021/12/21 12:59:24;;;;;;;18.43;10.80;;;10.70;97.70;;;;;;5016466;28;20245;-80
2021/12/21 13:01:53;;;;;;;18.50;10.97;;;10.50;97.60;;;;;;5007407;28;20299;-80
2021/12/21 13:04:21;;;;;;;15.60;10.37;;;10.40;97.60;;;;;;5025977;28;20234;-80
2021/12/21 13:06:52;;;;;;;15.83;10.23;;;10.30;97.60;;;;;;5022904;28;20588;-80
2021/12/21 13:09:20;;;;;;;15.63;10.57;;;10.10;97.60;;;;;;5014288;28;20224;-80
2021/12/21 13:11:47;;;;;;;17.70;11.73;;;9.90;97.60;;;;;;5017092;28;20316;-80
2021/12/21 13:14:16;;;;;;;16.47;10.10;;;9.80;97.80;;;;;;5010620;28;20231;-80
2021/12/21 13:16:47;;;;;;;13.47;9.97;;;9.60;98.10;;;;;;5024147;28;20249;-81
2021/12/21 13:19:15;;;;;;;15.23;10.20;;;9.40;97.90;;;;;;5005721;28;20234;-80
2021/12/21 13:21:48;;;;;;;15.17;9.57;;;9.30;98.40;;;;;;5013276;28;20305;-80
2021/12/21 13:24:18;;;;;;;14.97;9.47;;;9.10;98.10;;;;;;5017401;28;20262;-81
2021/12/21 13:26:50;;;;;;;15.30;8.93;;;8.90;98.20;;;;;;5024468;28;20752;-81
2021/12/21 13:29:19;;;;;;;13.43;8.57;;;8.80;98.30;;;;;;5007180;28;20262;-80